sensor_id;sensor_type;location;lat;lon;timestamp;pressure;altitude;pressure_sealevel;temperature;humidity
48606;BME280;8482;54.396;18.590;2023-02-14T00:00:19;103100.84;;;5.44;82.50
48606;BME280;8482;54.396;18.590;2023-02-14T00:02:47;103097.34;;;5.45;82.14
48606;BME280;8482;54.396;18.590;2023-02-14T00:05:13;103106.13;;;5.43;82.39
48606;BME280;8482;54.396;18.590;2023-02-14T00:07:39;103106.22;;;5.40;82.01
48606;BME280;8482;54.396;18.590;2023-02-14T00:10:07;103111.50;;;5.38;82.41
48606;BME280;8482;54.396;18.590;2023-02-14T00:12:33;103103.59;;;5.40;82.12
48606;BME280;8482;54.396;18.590;2023-02-14T00:14:59;103101.84;;;5.39;81.90
48606;BME280;8482;54.396;18.590;2023-02-14T00:17:43;103107.06;;;5.40;82.20
48606;BME280;8482;54.396;18.590;2023-02-14T00:20:10;103104.44;;;5.40;82.17
48606;BME280;8482;54.396;18.590;2023-02-14T00:22:36;103108.84;;;5.38;82.31
48606;BME280;8482;54.396;18.590;2023-02-14T00:25:02;103108.91;;;5.36;81.63
48606;BME280;8482;54.396;18.590;2023-02-14T00:27:27;103108.06;;;5.34;82.98
48606;BME280;8482;54.396;18.590;2023-02-14T00:29:53;103106.28;;;5.36;82.36
48606;BME280;8482;54.396;18.590;2023-02-14T00:32:21;103120.28;;;5.37;82.81
48606;BME280;8482;54.396;18.590;2023-02-14T00:34:46;103112.38;;;5.37;82.36
48606;BME280;8482;54.396;18.590;2023-02-14T00:37:12;103112.44;;;5.35;82.45
48606;BME280;8482;54.396;18.590;2023-02-14T00:39:38;103107.19;;;5.34;82.84
48606;BME280;8482;54.396;18.590;2023-02-14T00:42:04;103110.72;;;5.33;82.60
48606;BME280;8482;54.396;18.590;2023-02-14T00:44:30;103105.47;;;5.31;82.82
48606;BME280;8482;54.396;18.590;2023-02-14T00:46:56;103112.53;;;5.31;83.04
48606;BME280;8482;54.396;18.590;2023-02-14T00:49:21;103106.34;;;5.32;82.96
48606;BME280;8482;54.396;18.590;2023-02-14T00:51:47;103122.19;;;5.29;83.00
48606;BME280;8482;54.396;18.590;2023-02-14T00:54:13;103129.16;;;5.31;82.98
48606;BME280;8482;54.396;18.590;2023-02-14T00:56:39;103129.19;;;5.30;83.10
48606;BME280;8482;54.396;18.590;2023-02-14T00:59:05;103140.59;;;5.30;82.93
48606;BME280;8482;54.396;18.590;2023-02-14T01:01:30;103138.00;;;5.29;83.69
48606;BME280;8482;54.396;18.590;2023-02-14T01:03:56;103132.78;;;5.27;83.31
48606;BME280;8482;54.396;18.590;2023-02-14T01:06:23;103129.25;;;5.28;83.52
48606;BME280;8482;54.396;18.590;2023-02-14T01:08:49;103136.25;;;5.28;83.56
48606;BME280;8482;54.396;18.590;2023-02-14T01:11:20;103124.88;;;5.27;84.03
48606;BME280;8482;54.396;18.590;2023-02-14T01:13:48;103145.03;;;5.27;83.72
48606;BME280;8482;54.396;18.590;2023-02-14T01:16:18;103138.03;;;5.27;83.79
48606;BME280;8482;54.396;18.590;2023-02-14T01:18:45;103141.56;;;5.26;83.75
48606;BME280;8482;54.396;18.590;2023-02-14T01:21:19;103138.91;;;5.26;83.90
48606;BME280;8482;54.396;18.590;2023-02-14T01:23:48;103138.97;;;5.23;83.99
48606;BME280;8482;54.396;18.590;2023-02-14T01:26:15;103148.56;;;5.27;83.96
48606;BME280;8482;54.396;18.590;2023-02-14T01:28:43;103144.16;;;5.28;84.53
48606;BME280;8482;54.396;18.590;2023-02-14T01:31:31;103137.16;;;5.27;84.05
48606;BME280;8482;54.396;18.590;2023-02-14T01:33:58;103147.66;;;5.27;84.08
48606;BME280;8482;54.396;18.590;2023-02-14T01:36:38;103138.94;;;5.25;83.64
48606;BME280;8482;54.396;18.590;2023-02-14T01:39:13;103132.78;;;5.26;83.91
48606;BME280;8482;54.396;18.590;2023-02-14T01:41:42;103142.41;;;5.27;83.57
48606;BME280;8482;54.396;18.590;2023-02-14T01:46:44;103144.19;;;5.25;84.60
48606;BME280;8482;54.396;18.590;2023-02-14T01:49:28;103141.56;;;5.26;84.05
48606;BME280;8482;54.396;18.590;2023-02-14T01:52:12;103139.78;;;5.27;84.48
48606;BME280;8482;54.396;18.590;2023-02-14T01:54:53;103139.72;;;5.30;84.10
48606;BME280;8482;54.396;18.590;2023-02-14T01:57:23;103138.84;;;5.31;84.37
48606;BME280;8482;54.396;18.590;2023-02-14T01:59:56;103145.00;;;5.30;83.69
48606;BME280;8482;54.396;18.590;2023-02-14T02:02:44;103141.50;;;5.29;84.08
48606;BME280;8482;54.396;18.590;2023-02-14T02:05:10;103144.13;;;5.29;83.73
48606;BME280;8482;54.396;18.590;2023-02-14T02:07:37;103141.50;;;5.28;83.54
48606;BME280;8482;54.396;18.590;2023-02-14T02:10:06;103139.78;;;5.27;83.64
48606;BME280;8482;54.396;18.590;2023-02-14T02:12:33;103142.44;;;5.25;83.44
48606;BME280;8482;54.396;18.590;2023-02-14T02:15:05;103148.56;;;5.27;83.74
48606;BME280;8482;54.396;18.590;2023-02-14T02:26:37;103148.47;;;5.30;83.27
48606;BME280;8482;54.396;18.590;2023-02-14T02:32:16;103148.56;;;5.27;83.41
48606;BME280;8482;54.396;18.590;2023-02-14T02:35:14;103152.09;;;5.26;83.89
48606;BME280;8482;54.396;18.590;2023-02-14T02:41:17;103154.72;;;5.25;83.63
48606;BME280;8482;54.396;18.590;2023-02-14T02:53:19;103168.72;;;5.27;83.83
48606;BME280;8482;54.396;18.590;2023-02-14T02:56:17;103181.00;;;5.28;83.63
48606;BME280;8482;54.396;18.590;2023-02-14T02:59:36;103179.25;;;5.27;83.66
48606;BME280;8482;54.396;18.590;2023-02-14T03:02:11;103176.66;;;5.24;83.49
48606;BME280;8482;54.396;18.590;2023-02-14T03:04:43;103174.03;;;5.24;83.50
48606;BME280;8482;54.396;18.590;2023-02-14T03:07:38;103167.97;;;5.20;83.14
48606;BME280;8482;54.396;18.590;2023-02-14T03:10:23;103183.78;;;5.18;83.43
48606;BME280;8482;54.396;18.590;2023-02-14T03:16:30;103179.50;;;5.11;83.71
48606;BME280;8482;54.396;18.590;2023-02-14T03:19:12;103175.97;;;5.14;83.69
48606;BME280;8482;54.396;18.590;2023-02-14T03:22:27;103181.28;;;5.11;83.42
48606;BME280;8482;54.396;18.590;2023-02-14T03:25:16;103186.59;;;5.09;84.09
48606;BME280;8482;54.396;18.590;2023-02-14T03:27:54;103184.81;;;5.10;83.84
48606;BME280;8482;54.396;18.590;2023-02-14T03:30:36;103188.28;;;5.10;83.53
48606;BME280;8482;54.396;18.590;2023-02-14T03:33:29;103186.59;;;5.07;83.39
48606;BME280;8482;54.396;18.590;2023-02-14T03:36:11;103191.00;;;5.07;83.34
48606;BME280;8482;54.396;18.590;2023-02-14T03:38:46;103193.63;;;5.05;83.60
48606;BME280;8482;54.396;18.590;2023-02-14T03:41:24;103186.63;;;5.04;83.57
48606;BME280;8482;54.396;18.590;2023-02-14T03:43:57;103188.38;;;5.05;83.81
48606;BME280;8482;54.396;18.590;2023-02-14T03:46:35;103184.91;;;5.03;83.69
48606;BME280;8482;54.396;18.590;2023-02-14T03:49:12;103187.59;;;5.00;82.81
48606;BME280;8482;54.396;18.590;2023-02-14T03:51:40;103192.91;;;4.97;83.08
48606;BME280;8482;54.396;18.590;2023-02-14T03:54:12;103186.84;;;4.92;83.12
48606;BME280;8482;54.396;18.590;2023-02-14T03:56:47;103197.44;;;4.89;83.56
48606;BME280;8482;54.396;18.590;2023-02-14T03:59:19;103213.22;;;4.87;83.48
48606;BME280;8482;54.396;18.590;2023-02-14T04:04:14;103201.84;;;4.87;83.81
48606;BME280;8482;54.396;18.590;2023-02-14T04:06:43;103200.06;;;4.87;84.55
48606;BME280;8482;54.396;18.590;2023-02-14T04:09:08;103212.31;;;4.88;84.49
48606;BME280;8482;54.396;18.590;2023-02-14T04:11:35;103218.47;;;4.89;84.19
48606;BME280;8482;54.396;18.590;2023-02-14T04:14:03;103207.06;;;4.88;83.86
48606;BME280;8482;54.396;18.590;2023-02-14T04:16:30;103190.44;;;4.86;84.64
48606;BME280;8482;54.396;18.590;2023-02-14T04:19:16;103188.69;;;4.85;84.22
48606;BME280;8482;54.396;18.590;2023-02-14T04:21:50;103211.50;;;4.85;84.02
48606;BME280;8482;54.396;18.590;2023-02-14T04:24:16;103204.47;;;4.85;84.11
48606;BME280;8482;54.396;18.590;2023-02-14T04:26:42;103187.00;;;4.83;84.08
48606;BME280;8482;54.396;18.590;2023-02-14T04:29:28;103194.03;;;4.81;84.24
48606;BME280;8482;54.396;18.590;2023-02-14T04:31:53;103201.97;;;4.78;83.80
48606;BME280;8482;54.396;18.590;2023-02-14T04:34:19;103197.63;;;4.75;84.31
48606;BME280;8482;54.396;18.590;2023-02-14T04:36:45;103201.19;;;4.72;84.08
48606;BME280;8482;54.396;18.590;2023-02-14T04:39:11;103188.91;;;4.71;83.97
48606;BME280;8482;54.396;18.590;2023-02-14T04:41:36;103181.03;;;4.70;84.20
48606;BME280;8482;54.396;18.590;2023-02-14T04:44:02;103197.72;;;4.67;83.81
48606;BME280;8482;54.396;18.590;2023-02-14T04:46:28;103198.63;;;4.68;84.45
48606;BME280;8482;54.396;18.590;2023-02-14T04:48:54;103193.38;;;4.68;84.51
48606;BME280;8482;54.396;18.590;2023-02-14T04:51:20;103189.84;;;4.69;84.75
48606;BME280;8482;54.396;18.590;2023-02-14T04:53:45;103194.19;;;4.70;83.99
48606;BME280;8482;54.396;18.590;2023-02-14T04:56:11;103183.66;;;4.70;84.09
48606;BME280;8482;54.396;18.590;2023-02-14T04:58:37;103195.06;;;4.70;84.82
48606;BME280;8482;54.396;18.590;2023-02-14T05:01:03;103187.19;;;4.70;84.45
48606;BME280;8482;54.396;18.590;2023-02-14T05:03:28;103197.66;;;4.72;84.54
48606;BME280;8482;54.396;18.590;2023-02-14T05:05:54;103200.25;;;4.75;84.77
48606;BME280;8482;54.396;18.590;2023-02-14T05:08:20;103197.59;;;4.76;85.09
48606;BME280;8482;54.396;18.590;2023-02-14T05:10:46;103199.31;;;4.78;84.75
48606;BME280;8482;54.396;18.590;2023-02-14T05:13:12;103189.69;;;4.78;84.82
48606;BME280;8482;54.396;18.590;2023-02-14T05:15:39;103192.25;;;4.83;84.68
48606;BME280;8482;54.396;18.590;2023-02-14T05:18:04;103200.06;;;4.87;84.32
48606;BME280;8482;54.396;18.590;2023-02-14T05:20:31;103193.88;;;4.90;84.69
48606;BME280;8482;54.396;18.590;2023-02-14T05:22:57;103192.94;;;4.94;84.37
48606;BME280;8482;54.396;18.590;2023-02-14T05:25:29;103194.69;;;4.95;83.77
48606;BME280;8482;54.396;18.590;2023-02-14T05:27:55;103195.53;;;4.97;84.39
48606;BME280;8482;54.396;18.590;2023-02-14T05:30:20;103201.66;;;4.99;84.33
48606;BME280;8482;54.396;18.590;2023-02-14T05:32:53;103197.25;;;5.00;83.95
48606;BME280;8482;54.396;18.590;2023-02-14T05:35:19;103196.44;;;4.96;83.87
48606;BME280;8482;54.396;18.590;2023-02-14T05:37:45;103208.72;;;4.94;83.54
48606;BME280;8482;54.396;18.590;2023-02-14T05:40:11;103208.72;;;4.96;83.71
48606;BME280;8482;54.396;18.590;2023-02-14T05:42:39;103206.97;;;4.95;83.43
48606;BME280;8482;54.396;18.590;2023-02-14T05:45:05;103208.69;;;4.97;83.95
48606;BME280;8482;54.396;18.590;2023-02-14T05:47:31;103213.97;;;4.96;83.13
48606;BME280;8482;54.396;18.590;2023-02-14T05:49:57;103218.34;;;4.95;83.51
48606;BME280;8482;54.396;18.590;2023-02-14T05:52:23;103228.84;;;4.97;83.49
48606;BME280;8482;54.396;18.590;2023-02-14T05:54:49;103227.94;;;4.98;83.46
48606;BME280;8482;54.396;18.590;2023-02-14T05:57:15;103227.94;;;4.98;83.32
48606;BME280;8482;54.396;18.590;2023-02-14T05:59:41;103230.59;;;4.98;83.79
48606;BME280;8482;54.396;18.590;2023-02-14T06:02:08;103237.59;;;4.99;83.42
48606;BME280;8482;54.396;18.590;2023-02-14T06:04:34;103242.00;;;4.98;83.12
48606;BME280;8482;54.396;18.590;2023-02-14T06:07:00;103237.63;;;4.97;83.44
48606;BME280;8482;54.396;18.590;2023-02-14T06:09:26;103241.16;;;4.96;83.13
48606;BME280;8482;54.396;18.590;2023-02-14T06:11:52;103248.16;;;4.97;82.84
48606;BME280;8482;54.396;18.590;2023-02-14T06:14:18;103247.25;;;4.97;83.22
48606;BME280;8482;54.396;18.590;2023-02-14T06:16:43;103240.28;;;4.96;83.00
48606;BME280;8482;54.396;18.590;2023-02-14T06:19:09;103241.97;;;5.00;83.93
48606;BME280;8482;54.396;18.590;2023-02-14T06:21:35;103248.16;;;4.97;83.04
48606;BME280;8482;54.396;18.590;2023-02-14T06:24:01;103253.41;;;4.97;83.29
48606;BME280;8482;54.396;18.590;2023-02-14T06:26:28;103258.63;;;4.99;82.90
48606;BME280;8482;54.396;18.590;2023-02-14T06:28:55;103270.03;;;4.98;82.96
48606;BME280;8482;54.396;18.590;2023-02-14T06:31:22;103278.00;;;4.95;83.35
48606;BME280;8482;54.396;18.590;2023-02-14T06:33:48;103267.50;;;4.93;83.07
48606;BME280;8482;54.396;18.590;2023-02-14T06:36:14;103271.03;;;4.90;82.89
48606;BME280;8482;54.396;18.590;2023-02-14T06:38:40;103271.84;;;4.94;83.18
48606;BME280;8482;54.396;18.590;2023-02-14T06:41:09;103267.53;;;4.91;83.30
48606;BME280;8482;54.396;18.590;2023-02-14T06:43:36;103268.38;;;4.94;82.96
48606;BME280;8482;54.396;18.590;2023-02-14T06:46:03;103276.22;;;4.95;82.98
48606;BME280;8482;54.396;18.590;2023-02-14T06:48:28;103285.00;;;4.96;82.98
48606;BME280;8482;54.396;18.590;2023-02-14T06:50:54;103278.00;;;4.93;83.43
48606;BME280;8482;54.396;18.590;2023-02-14T06:53:20;103283.25;;;4.95;83.15
48606;BME280;8482;54.396;18.590;2023-02-14T06:55:47;103274.47;;;4.96;83.45
48606;BME280;8482;54.396;18.590;2023-02-14T06:58:13;103284.97;;;4.97;83.05
48606;BME280;8482;54.396;18.590;2023-02-14T07:00:39;103298.13;;;4.97;82.51
48606;BME280;8482;54.396;18.590;2023-02-14T07:03:06;103289.34;;;4.98;82.92
48606;BME280;8482;54.396;18.590;2023-02-14T07:05:32;103293.72;;;4.99;82.47
48606;BME280;8482;54.396;18.590;2023-02-14T07:07:59;103295.44;;;5.02;82.58
48606;BME280;8482;54.396;18.590;2023-02-14T07:10:25;103298.91;;;5.04;83.11
48606;BME280;8482;54.396;18.590;2023-02-14T07:12:51;103305.81;;;5.11;82.92
48606;BME280;8482;54.396;18.590;2023-02-14T07:15:18;103297.88;;;5.14;82.72
48606;BME280;8482;54.396;18.590;2023-02-14T07:17:44;103293.50;;;5.15;82.07
48606;BME280;8482;54.396;18.590;2023-02-14T07:20:12;103296.13;;;5.15;82.17
48606;BME280;8482;54.396;18.590;2023-02-14T07:22:38;103310.13;;;5.15;81.98
48606;BME280;8482;54.396;18.590;2023-02-14T07:25:06;103311.03;;;5.14;82.51
48606;BME280;8482;54.396;18.590;2023-02-14T07:27:32;103307.50;;;5.15;82.04
48606;BME280;8482;54.396;18.590;2023-02-14T07:29:58;103309.25;;;5.16;82.34
48606;BME280;8482;54.396;18.590;2023-02-14T07:32:24;103311.84;;;5.19;82.83
48606;BME280;8482;54.396;18.590;2023-02-14T07:34:50;103318.84;;;5.20;82.67
48606;BME280;8482;54.396;18.590;2023-02-14T07:37:17;103323.16;;;5.26;82.71
48606;BME280;8482;54.396;18.590;2023-02-14T07:39:44;103329.19;;;5.31;82.54
48606;BME280;8482;54.396;18.590;2023-02-14T07:42:11;103321.28;;;5.33;82.60
48606;BME280;8482;54.396;18.590;2023-02-14T07:44:37;103327.41;;;5.35;82.01
48606;BME280;8482;54.396;18.590;2023-02-14T07:47:08;103323.00;;;5.35;82.84
48606;BME280;8482;54.396;18.590;2023-02-14T07:49:35;103327.41;;;5.35;82.00
48606;BME280;8482;54.396;18.590;2023-02-14T07:52:02;103338.78;;;5.35;81.94
48606;BME280;8482;54.396;18.590;2023-02-14T07:54:28;103346.72;;;5.34;82.28
48606;BME280;8482;54.396;18.590;2023-02-14T07:56:54;103342.34;;;5.33;81.88
48606;BME280;8482;54.396;18.590;2023-02-14T07:59:20;103331.75;;;5.36;82.19
48606;BME280;8482;54.396;18.590;2023-02-14T08:01:46;103322.91;;;5.40;81.89
48606;BME280;8482;54.396;18.590;2023-02-14T08:04:12;103320.31;;;5.39;81.83
48606;BME280;8482;54.396;18.590;2023-02-14T08:06:41;103336.13;;;5.37;81.78
48606;BME280;8482;54.396;18.590;2023-02-14T08:09:08;103330.84;;;5.39;81.71
48606;BME280;8482;54.396;18.590;2023-02-14T08:11:37;103325.59;;;5.37;81.81
48606;BME280;8482;54.396;18.590;2023-02-14T08:14:22;103336.13;;;5.37;81.37
48606;BME280;8482;54.396;18.590;2023-02-14T08:16:48;103337.00;;;5.37;81.66
48606;BME280;8482;54.396;18.590;2023-02-14T08:19:14;103330.84;;;5.37;81.36
48606;BME280;8482;54.396;18.590;2023-02-14T08:21:40;103335.19;;;5.41;81.88
48606;BME280;8482;54.396;18.590;2023-02-14T08:24:06;103343.03;;;5.44;81.37
48606;BME280;8482;54.396;18.590;2023-02-14T08:26:31;103345.69;;;5.44;81.62
48606;BME280;8482;54.396;18.590;2023-02-14T08:28:57;103346.53;;;5.46;80.95
48606;BME280;8482;54.396;18.590;2023-02-14T08:31:27;103348.28;;;5.47;80.91
48606;BME280;8482;54.396;18.590;2023-02-14T08:33:53;103349.97;;;5.50;81.16
48606;BME280;8482;54.396;18.590;2023-02-14T08:36:19;103356.06;;;5.53;81.34
48606;BME280;8482;54.396;18.590;2023-02-14T08:38:45;103356.88;;;5.57;81.55
48606;BME280;8482;54.396;18.590;2023-02-14T08:41:16;103353.31;;;5.61;81.29
48606;BME280;8482;54.396;18.590;2023-02-14T08:43:43;103347.94;;;5.67;81.62
48606;BME280;8482;54.396;18.590;2023-02-14T08:46:10;103349.59;;;5.73;81.26
48606;BME280;8482;54.396;18.590;2023-02-14T08:48:42;103346.94;;;5.75;80.87
48606;BME280;8482;54.396;18.590;2023-02-14T08:51:11;103360.06;;;5.76;80.50
48606;BME280;8482;54.396;18.590;2023-02-14T08:53:38;103358.31;;;5.77;80.17
48606;BME280;8482;54.396;18.590;2023-02-14T08:56:08;103342.53;;;5.77;80.39
48606;BME280;8482;54.396;18.590;2023-02-14T08:58:34;103337.16;;;5.81;80.03
48606;BME280;8482;54.396;18.590;2023-02-14T09:01:07;103338.81;;;5.89;79.97
48606;BME280;8482;54.396;18.590;2023-02-14T09:03:34;103350.13;;;5.94;80.79
48606;BME280;8482;54.396;18.590;2023-02-14T09:06:04;103343.03;;;5.99;80.37
48606;BME280;8482;54.396;18.590;2023-02-14T09:08:30;103337.69;;;6.04;79.73
48606;BME280;8482;54.396;18.590;2023-02-14T09:11:20;103348.06;;;6.13;79.69
48606;BME280;8482;54.396;18.590;2023-02-14T09:13:48;103344.47;;;6.17;79.88
48606;BME280;8482;54.396;18.590;2023-02-14T09:16:16;103338.25;;;6.21;79.57
48606;BME280;8482;54.396;18.590;2023-02-14T09:18:43;103339.03;;;6.26;79.38
48606;BME280;8482;54.396;18.590;2023-02-14T09:21:17;103336.34;;;6.29;79.09
48606;BME280;8482;54.396;18.590;2023-02-14T09:23:44;103345.94;;;6.32;79.14
48606;BME280;8482;54.396;18.590;2023-02-14T09:26:12;103350.28;;;6.36;78.99
48606;BME280;8482;54.396;18.590;2023-02-14T09:28:39;103345.78;;;6.40;78.21
48606;BME280;8482;54.396;18.590;2023-02-14T09:33:36;103340.50;;;6.41;77.81
48606;BME280;8482;54.396;18.590;2023-02-14T09:36:02;103344.78;;;6.47;77.81
48606;BME280;8482;54.396;18.590;2023-02-14T09:38:46;103342.97;;;6.51;77.51
48606;BME280;8482;54.396;18.590;2023-02-14T09:44:12;103347.19;;;6.59;76.99
48606;BME280;8482;54.396;18.590;2023-02-14T09:46:47;103362.00;;;6.65;77.31
48606;BME280;8482;54.396;18.590;2023-02-14T09:49:28;103364.50;;;6.71;76.92
48606;BME280;8482;54.396;18.590;2023-02-14T09:51:57;103356.50;;;6.76;76.86
48606;BME280;8482;54.396;18.590;2023-02-14T09:54:29;103349.41;;;6.78;76.55
48606;BME280;8482;54.396;18.590;2023-02-14T09:57:04;103352.84;;;6.82;76.48
48606;BME280;8482;54.396;18.590;2023-02-14T10:00:02;103354.53;;;6.86;76.37
48606;BME280;8482;54.396;18.590;2023-02-14T10:05:12;103362.34;;;6.90;76.05
48606;BME280;8482;54.396;18.590;2023-02-14T10:10:32;103362.97;;;7.03;76.35
48606;BME280;8482;54.396;18.590;2023-02-14T10:13:43;103373.25;;;7.16;76.29
48606;BME280;8482;54.396;18.590;2023-02-14T10:16:34;103373.97;;;7.23;76.04
48606;BME280;8482;54.396;18.590;2023-02-14T10:19:07;103370.31;;;7.28;75.22
48606;BME280;8482;54.396;18.590;2023-02-14T10:21:57;103366.78;;;7.29;74.92
48606;BME280;8482;54.396;18.590;2023-02-14T10:24:39;103359.59;;;7.34;74.57
48606;BME280;8482;54.396;18.590;2023-02-14T10:27:29;103362.22;;;7.36;74.38
48606;BME280;8482;54.396;18.590;2023-02-14T10:29:57;103373.59;;;7.40;74.83
48606;BME280;8482;54.396;18.590;2023-02-14T10:33:09;103353.22;;;7.45;74.65
48606;BME280;8482;54.396;18.590;2023-02-14T10:35:51;103354.84;;;7.50;74.27
48606;BME280;8482;54.396;18.590;2023-02-14T10:53:23;103356.69;;;7.83;72.76
48606;BME280;8482;54.396;18.590;2023-02-14T10:56:04;103358.44;;;7.82;72.58
48606;BME280;8482;54.396;18.590;2023-02-14T10:58:37;103357.53;;;7.85;72.22
48606;BME280;8482;54.396;18.590;2023-02-14T11:01:14;103353.09;;;7.86;71.96
48606;BME280;8482;54.396;18.590;2023-02-14T11:03:53;103368.81;;;7.90;71.76
48606;BME280;8482;54.396;18.590;2023-02-14T11:06:20;103351.16;;;7.94;71.48
48606;BME280;8482;54.396;18.590;2023-02-14T11:08:46;103353.66;;;7.98;71.36
48606;BME280;8482;54.396;18.590;2023-02-14T11:11:52;103346.44;;;8.05;71.73
48606;BME280;8482;54.396;18.590;2023-02-14T11:14:37;103349.78;;;8.12;71.19
48606;BME280;8482;54.396;18.590;2023-02-14T11:17:30;103357.53;;;8.18;71.05
48606;BME280;8482;54.396;18.590;2023-02-14T11:20:12;103353.03;;;8.22;71.09
48606;BME280;8482;54.396;18.590;2023-02-14T11:22:45;103363.50;;;8.26;71.20
48606;BME280;8482;54.396;18.590;2023-02-14T11:25:26;103342.25;;;8.29;70.49
48606;BME280;8482;54.396;18.590;2023-02-14T11:28:04;103346.59;;;8.32;70.67
48606;BME280;8482;54.396;18.590;2023-02-14T11:30:42;103340.41;;;8.32;70.11
48606;BME280;8482;54.396;18.590;2023-02-14T11:33:37;103336.72;;;8.39;69.56
48606;BME280;8482;54.396;18.590;2023-02-14T11:36:11;103334.84;;;8.42;69.55
48606;BME280;8482;54.396;18.590;2023-02-14T11:38:39;103321.47;;;8.49;69.31
48606;BME280;8482;54.396;18.590;2023-02-14T11:41:12;103325.63;;;8.57;69.37
48606;BME280;8482;54.396;18.590;2023-02-14T11:43:43;103330.63;;;8.67;69.67
48606;BME280;8482;54.396;18.590;2023-02-14T11:46:26;103333.78;;;8.80;69.29
48606;BME280;8482;54.396;18.590;2023-02-14T11:51:43;103327.22;;;8.93;67.73
48606;BME280;8482;54.396;18.590;2023-02-14T11:54:34;103338.66;;;8.94;67.43
48606;BME280;8482;54.396;18.590;2023-02-14T11:59:56;103330.63;;;8.97;67.15
48606;BME280;8482;54.396;18.590;2023-02-14T12:02:39;103327.03;;;8.99;67.00
48606;BME280;8482;54.396;18.590;2023-02-14T12:05:29;103323.38;;;9.03;66.61
48606;BME280;8482;54.396;18.590;2023-02-14T12:08:05;103319.72;;;9.08;66.55
48606;BME280;8482;54.396;18.590;2023-02-14T12:10:38;103336.34;;;9.13;66.71
48606;BME280;8482;54.396;18.590;2023-02-14T12:15:37;103330.78;;;9.20;66.32
48606;BME280;8482;54.396;18.590;2023-02-14T12:31:52;103303.50;;;9.45;64.74
48606;BME280;8482;54.396;18.590;2023-02-14T12:34:19;103307.75;;;9.51;64.62
48606;BME280;8482;54.396;18.590;2023-02-14T12:38:13;103310.22;;;9.56;64.35
48606;BME280;8482;54.396;18.590;2023-02-14T12:49:30;103306.34;;;9.66;64.28
48606;BME280;8482;54.396;18.590;2023-02-14T12:55:11;103306.72;;;9.80;63.78
48606;BME280;8482;54.396;18.590;2023-02-14T12:57:53;103302.09;;;9.87;63.83
48606;BME280;8482;54.396;18.590;2023-02-14T13:00:47;103301.91;;;9.92;63.44
48606;BME280;8482;54.396;18.590;2023-02-14T13:06:37;103307.94;;;9.97;63.16
48606;BME280;8482;54.396;18.590;2023-02-14T13:20:35;103306.63;;;9.84;62.29
48606;BME280;8482;54.396;18.590;2023-02-14T13:23:12;103298.63;;;9.85;62.67
48606;BME280;8482;54.396;18.590;2023-02-14T13:25:44;103292.31;;;9.88;62.72
48606;BME280;8482;54.396;18.590;2023-02-14T13:28:15;103295.53;;;9.97;62.68
48606;BME280;8482;54.396;18.590;2023-02-14T13:30:42;103288.88;;;10.11;62.61
48606;BME280;8482;54.396;18.590;2023-02-14T13:33:33;103289.88;;;10.32;61.94
48606;BME280;8482;54.396;18.590;2023-02-14T13:36:07;103292.66;;;10.53;61.67
48606;BME280;8482;54.396;18.590;2023-02-14T13:38:56;103278.50;;;10.76;60.82
48606;BME280;8482;54.396;18.590;2023-02-14T13:41:25;103281.16;;;10.98;60.10
48606;BME280;8482;54.396;18.590;2023-02-14T13:43:58;103287.13;;;11.26;59.37
48606;BME280;8482;54.396;18.590;2023-02-14T13:51:54;103283.94;;;12.02;57.21
48606;BME280;8482;54.396;18.590;2023-02-14T13:54:42;103279.91;;;12.33;55.71
48606;BME280;8482;54.396;18.590;2023-02-14T13:57:33;103276.94;;;12.58;54.44
48606;BME280;8482;54.396;18.590;2023-02-14T14:03:04;103286.47;;;13.00;52.75
48606;BME280;8482;54.396;18.590;2023-02-14T14:10:55;103287.69;;;13.30;52.20
48606;BME280;8482;54.396;18.590;2023-02-14T14:16:33;103288.94;;;13.59;50.71
48606;BME280;8482;54.396;18.590;2023-02-14T14:22:04;103293.13;;;13.99;49.71
48606;BME280;8482;54.396;18.590;2023-02-14T14:24:38;103287.00;;;14.14;48.92
48606;BME280;8482;54.396;18.590;2023-02-14T14:29:35;103287.53;;;14.21;48.37
48606;BME280;8482;54.396;18.590;2023-02-14T14:32:18;103296.13;;;14.26;47.85
48606;BME280;8482;54.396;18.590;2023-02-14T14:34:54;103285.56;;;14.40;47.42
48606;BME280;8482;54.396;18.590;2023-02-14T14:37:27;103285.28;;;14.29;47.11
48606;BME280;8482;54.396;18.590;2023-02-14T14:39:59;103287.75;;;13.83;47.90
48606;BME280;8482;54.396;18.590;2023-02-14T14:42:32;103293.22;;;13.27;49.18
48606;BME280;8482;54.396;18.590;2023-02-14T14:45:16;103302.00;;;12.73;50.41
48606;BME280;8482;54.396;18.590;2023-02-14T14:47:45;103297.38;;;12.19;51.71
48606;BME280;8482;54.396;18.590;2023-02-14T14:50:24;103298.41;;;11.74;52.87
48606;BME280;8482;54.396;18.590;2023-02-14T14:52:58;103305.38;;;11.35;53.93
48606;BME280;8482;54.396;18.590;2023-02-14T14:55:27;103298.75;;;11.01;54.22
48606;BME280;8482;54.396;18.590;2023-02-14T14:58:01;103294.59;;;10.71;55.18
48606;BME280;8482;54.396;18.590;2023-02-14T15:00:34;103295.72;;;10.42;56.43
48606;BME280;8482;54.396;18.590;2023-02-14T15:05:46;103298.44;;;9.90;57.56
48606;BME280;8482;54.396;18.590;2023-02-14T15:13:48;103304.09;;;9.27;60.02
48606;BME280;8482;54.396;18.590;2023-02-14T15:19:15;103300.75;;;8.93;61.69
48606;BME280;8482;54.396;18.590;2023-02-14T15:21:43;103306.50;;;8.78;62.11
48606;BME280;8482;54.396;18.590;2023-02-14T15:24:16;103299.13;;;8.59;62.82
48606;BME280;8482;54.396;18.590;2023-02-14T15:26:46;103303.84;;;8.48;63.23
48606;BME280;8482;54.396;18.590;2023-02-14T15:29:29;103304.22;;;8.34;63.84
48606;BME280;8482;54.396;18.590;2023-02-14T15:31:57;103302.75;;;8.23;64.19
48606;BME280;8482;54.396;18.590;2023-02-14T15:34:36;103300.53;;;8.08;64.61
48606;BME280;8482;54.396;18.590;2023-02-14T15:37:03;103295.59;;;7.95;65.49
48606;BME280;8482;54.396;18.590;2023-02-14T15:39:46;103289.72;;;7.84;65.54
48606;BME280;8482;54.396;18.590;2023-02-14T15:42:26;103295.34;;;7.72;65.88
48606;BME280;8482;54.396;18.590;2023-02-14T15:48:01;103314.44;;;7.47;66.84
48606;BME280;8482;54.396;18.590;2023-02-14T15:50:32;103312.00;;;7.38;67.06